Albemarle, North Carolina
Current Conditions -  °F | °C
As of 12:35 PM on Wednesday 26 Nov 2014 (Local Time) from KVUJ Reporting Station
Overcast Overcast  
Wind Chill:   Ceiling: 1400
Heat Index:   Visibility: 10mi
Dew Point:   Wind: 6mph
Humidity: 96%   Direction: 360°N
Pressure: 30.02"   Gusts: NA
Location:  35.35°N, 80.19°W
Report Text: KVUJ 261735Z AUTO 36005KT 10SM SCT010 BKN014 OVC019 07/07 A3002 RMK AO2 T00730067
Loading
Personal Weather Stations






























Interactive Weather Map New forecast layout! Learn more

10-Day Weather Forecast

Advertisements
Track Severe Weather on mobile